Chicago, Illinois
Traffic Map
Current Weather Conditions
Chicago, Illinois
Scattered Clouds
Scattered Clouds
62°
Feels Like: 62°
Wind Chill: 62° Ceiling: Unl
Heat Index: 62° Visibility: 10mi
Dew Point: 56° Wind: 3mph
Humidity: 80% Direction: 260° (W)
Pressure: 30in Gusts: 0mph
Raw Report DataKMDW 300851Z 26003KT 10SM FEW100 SCT250 17/13 A3000 RMK AO2 SLP153 T01670133 56001
Traffic Incident Summary
Active as of:
Severity:
Category:
InformationThere was an issue retrieving the traffic information for this location. Please try a different location or try again shortly.
Advertisements
Track Severe Weather on mobile